• Join FlightAware (Why Join?)
  • Login
  • US Flag 
03:14AM EDT


 

Airport Tracker/Info


-or-


 

Live Flight TrackerFlight Track Log ✈ UAL118 ✈ 31-Oct-2013 ✈ EDDF / FRA - KEWR

Flight Track Log - Related Links

Times and Time Zones

All times are in EDT time to prevent confusion due to time zone crossing. See the UAL118 flight status page for this flight to view local times or setup timezone preferences in your user account.

Time Position Orientation Groundspeed Altitude Reporting Facility
EDT Latitude Longitude Course Direction KTS MPH feet Rate Location/Type
04:00AM 50.0280 8.5570 203° Southwest 174 200  Level FlightAware
04:01AM 50.0170 8.5110 250° West 178 205 1,800 2,400 Climbing FlightAware
04:02AM 50.0180 8.4700 272° West 184 212 2,900 1,800 Climbing FlightAware
04:02AM 50.0160 8.4130 267° West 213 245 4,000 1,620 Climbing FlightAware
04:03AM 50.0100 8.3680 258° West 240 276 4,800 1,380 Climbing FlightAware
04:03AM 50.0080 8.3440 263° West 252 290 5,000 2,040 Climbing FlightAware
04:04AM 50.0070 8.2550 269° West 272 313 7,100 2,700 Climbing FlightAware
04:04AM 50.0260 8.1940 296° West 273 314 8,800 2,700 Climbing FlightAware
04:05AM 50.0410 8.1400 293° West 284 327 9,900 1,860 Climbing FlightAware
04:06AM 50.0760 8.0610 305° West 316 364 11,100 1,680 Climbing FlightAware
04:06AM 50.1080 7.9990 309° West 343 395 12,100 1,860 Climbing FlightAware
04:07AM 50.1410 7.9340 308° West 355 409 13,200 2,580 Climbing FlightAware
04:07AM 50.1800 7.8580 309° West 349 402 15,200 2,580 Climbing FlightAware
04:08AM 50.2130 7.7920 308° West 361 415 16,200 1,920 Climbing FlightAware
04:08AM 50.2550 7.7290 316° Northwest 376 433 17,300 1,920 Climbing FlightAware
04:09AM 50.3110 7.6870 334° Northwest 386 444 18,600 2,100 Climbing FlightAware
04:10AM 50.3780 7.6420 337° Northwest 391 450 20,000 1,920 Climbing FlightAware
04:10AM 50.4410 7.5980 336° Northwest 401 461 21,100 1,740 Climbing FlightAware
04:11AM 50.5060 7.5530 336° Northwest 406 467 22,200 1,260 Climbing FlightAware
04:12AM 50.5850 7.4860 332° Northwest 415 478 23,000 960 Climbing FlightAware
04:12AM 50.6390 7.4300 327° Northwest 407 468 23,600 1,080 Climbing FlightAware
04:13AM 50.6681 7.4000 327° Northwest 412 474 24,000 1,500 Climbing FlightAware ADS-B (EDLW / DTM)
04:13AM 50.7345 7.3308 327° Northwest 417 480 25,100 1,620 Climbing FlightAware ADS-B (EDLW / DTM)
04:14AM 50.7829 7.2808 327° Northwest 423 487 25,900 1,440 Climbing FlightAware ADS-B (EDLW / DTM)
04:14AM 50.8341 7.2277 327° Northwest 427 491 26,600 1,380 Climbing FlightAware ADS-B (EDLW / DTM)
04:15AM 50.8926 7.1670 327° Northwest 431 496 27,400 1,260 Climbing FlightAware ADS-B (EDKL)
04:15AM 50.9414 7.1148 326° Northwest 433 498 28,000 1,260 Climbing FlightAware ADS-B (EDKL)
04:16AM 50.9845 7.0575 320° Northwest 433 498 28,700 1,260 Climbing FlightAware ADS-B (EDKL)
04:16AM 51.0286 6.9859 314° West 436 502 29,300 1,080 Climbing FlightAware ADS-B (EDKL)
04:17AM 51.0703 6.9169 314° West 439 505 29,800 960 Climbing FlightAware ADS-B (EDKL)
04:18AM 51.1206 6.8331 314° West 445 512 30,400 1,020 Climbing FlightAware ADS-B (EDLW / DTM)
04:18AM 51.1652 6.7580 313° West 448 516 31,000 1,380 Climbing FlightAware ADS-B (EDLW / DTM)
04:19AM 51.2061 6.6890 313° West 441 507 31,900 1,560 Climbing FlightAware ADS-B (EDLW / DTM)
04:19AM 51.2524 6.6108 313° West 439 505 32,600 1,320 Climbing FlightAware ADS-B (EDKL)
04:20AM 51.2936 6.5408 313° West 437 503 33,300 1,140 Climbing FlightAware ADS-B (EDKL)
04:20AM 51.3393 6.4632 313° West 434 499 33,900 600 Climbing FlightAware ADS-B (EDLW / DTM)
04:21AM 51.3827 6.3894 313° West 436 502 34,000 60 Climbing FlightAware ADS-B (EDLW / DTM)
04:21AM 51.4292 6.3097 313° West 437 503 34,000  Level FlightAware ADS-B (EDKL)
04:22AM 51.4757 6.2299 313° West 438 504 34,000  Level FlightAware ADS-B (EDKL)
04:22AM 51.5133 6.1628 312° West 437 503 34,000  Level FlightAware ADS-B (EDKL)
04:23AM 51.5542 6.0838 310° West 436 502 34,000  Level FlightAware ADS-B (EDKL)
04:23AM 51.5980 5.9950 308° West 436 502 34,000  Level FlightAware
04:24AM 51.6510 5.8850 308° West 437 503 34,000  Level FlightAware
04:25AM 51.6829 5.8187 308° West 436 502 34,000  Level FlightAware ADS-B (EDKL)
04:25AM 51.7440 5.6930 308° West 437 503 34,000  Level FlightAware
04:26AM 51.7900 5.5970 308° West 436 502 34,000  Level FlightAware
04:27AM 51.8390 5.4930 307° West 435 501 34,000  Level FlightAware
04:27AM 51.8790 5.4110 308° West 434 499 34,000  Level FlightAware
04:28AM 51.9524 5.2883 308° West 456 525 34,000  Level FlightAware UK
04:28AM 51.9640 5.2330 308° West 433 498 34,000  Level FlightAware
04:29AM 52.0130 5.1280 307° West 431 496 34,000  Level FlightAware
04:29AM 52.0470 5.0580 308° West 430 495 34,000  Level FlightAware
04:30AM 52.0950 4.9540 307° West 430 495 34,000  Level FlightAware
04:31AM 52.1700 4.7950 307° West 428 493 34,000  Level FlightAware
04:31AM 52.1837 4.7964 307° West 448 516 34,000  Level FlightAware UK
04:32AM 52.2188 4.7191 307° West 448 516 34,000  Level FlightAware UK
04:32AM 52.2130 4.7030 307° West 428 493 34,000  Level FlightAware
04:32AM 52.2683 4.6117 307° West 448 516 34,000  Level FlightAware UK
04:33AM 52.2670 4.5870 307° West 427 491 34,000  Level FlightAware
04:33AM 52.3130 4.4870 307° West 427 491 34,000  Level FlightAware
04:33AM 52.3260 4.4898 307° West 448 516 34,000  Level FlightAware UK
04:34AM 52.3490 4.4090 307° West 427 491 34,000  Level FlightAware
04:34AM 52.3820 4.3390 308° West 426 490 34,000  Level FlightAware
04:35AM 52.4321 4.2583 308° West 450 518 34,000  Level FlightAware UK
04:35AM 52.4250 4.2450 308° West 427 491 34,000  Level FlightAware
04:36AM 52.4900 4.1010 307° West 426 490 34,000  Level FlightAware
04:36AM 52.5380 3.9960 307° West 425 489 34,000  Level FlightAware
04:37AM 52.5740 3.9160 307° West 425 489 34,000  Level FlightAware
04:37AM 52.6130 3.8310 307° West 425 489 34,000  Level FlightAware
04:39AM 52.6969 3.6685 307° West 448 516 34,000  Level FlightAware UK
04:39AM 52.6940 3.6490 307° West 425 489 34,000  Level FlightAware
04:39AM 52.7386 3.5746 307° West 452 520 34,000  Level FlightAware UK
04:39AM 52.7300 3.5690 307° West 425 489 34,000  Level FlightAware
04:40AM 52.7560 3.5110 307° West 426 490 34,000  Level FlightAware
04:40AM 52.7733 3.4963 307° West 454 522 34,000  Level FlightAware UK
04:40AM 52.7936 3.4260 306° West 426 490 34,000  Level FlightAware ADS-B (EGLG)
04:41AM 52.8205 3.3653 306° West 426 490 34,000  Level FlightAware ADS-B (EGLG)
04:41AM 52.8853 3.2242 306° West 452 520 34,000  Level FlightAware UK
04:41AM 52.8870 3.1880 306° West 419 482 34,000  Level FlightAware
04:42AM 52.9120 3.0820 291° West 416 479 34,000  Level FlightAware
04:43AM 52.9370 2.9760 291° West 415 478 34,000  Level FlightAware
04:43AM 52.9610 2.8650 291° West 413 475 34,000  Level FlightAware
04:43AM 52.9679 2.8679 291° West 454 522 34,000  Level FlightAware UK
04:44AM 52.9900 2.7390 291° West 413 475 34,000  Level FlightAware
04:45AM 53.0110 2.6410 290° West 410 472 34,000  Level FlightAware
04:45AM 53.0330 2.5440 291° West 406 467 34,000  Level FlightAware
04:46AM 53.0530 2.4520 291° West 404 465 34,000  Level FlightAware
04:46AM 53.0610 2.4442 291° West 454 522 34,000  Level FlightAware UK
04:46AM 53.0753 2.3497 290° West 401 461 34,000  Level FlightAware ADS-B (EGLC / LCY)
04:47AM 53.0940 2.2639 290° West 399 459 34,000  Level FlightAware ADS-B (EGLC / LCY)
04:47AM 53.1136 2.1739 290° West 396 456 34,000  Level FlightAware ADS-B (EGXW / WTN)
04:48AM 53.1378 2.0614 290° West 395 455 34,000  Level FlightAware ADS-B (EGXW / WTN)
04:48AM 53.1562 1.9758 290° West 395 455 34,000  Level FlightAware ADS-B (EGLC / LCY)
04:49AM 53.1766 1.8798 290° West 395 455 34,000  Level FlightAware ADS-B (EGNY)
04:49AM 53.1961 1.7876 290° West 395 455 34,000  Level FlightAware ADS-B
04:50AM 53.1663 1.9284 109° East 395 455 34,000  Level FlightAware ADS-B (EGXW / WTN)
04:50AM 53.2152 1.6982 290° West 395 455 34,000  Level FlightAware ADS-B
04:50AM 53.2226 1.6627 289° West 396 456 34,000  Level FlightAware ADS-B
04:51AM 53.2339 1.6091 289° West 396 456 34,000  Level FlightAware ADS-B
04:51AM 53.2423 1.5688 289° West 397 457 34,000  Level FlightAware ADS-B
04:51AM 53.2531 1.5170 289° West 397 457 34,000  Level FlightAware ADS-B
04:51AM 53.2640 1.4655 289° West 398 458 34,000  Level FlightAware ADS-B
04:52AM 53.2723 1.4245 289° West 398 458 34,000  Level FlightAware ADS-B
04:52AM 53.2910 1.3344 289° West 400 460 34,000  Level FlightAware ADS-B (EGNY)
04:52AM 53.2974 1.3041 289° West 399 459 34,000  Level FlightAware ADS-B
04:53AM 53.3098 1.2438 289° West 402 463 34,000  Level FlightAware ADS-B (EGNY)
04:53AM 53.3158 1.2146 289° West 402 463 34,000  Level FlightAware ADS-B
04:53AM 53.3280 1.1554 289° West 403 464 34,000  Level FlightAware ADS-B (EGNY)
04:54AM 53.3414 1.0895 289° West 404 465 34,000  Level FlightAware ADS-B (EGLG)
04:54AM 53.3647 0.9757 289° West 405 466 34,000  Level FlightAware ADS-B (EGXW / WTN)
04:55AM 53.3952 0.8455 289° West 454 522 34,000  Level FlightAware UK
04:55AM 53.4002 0.7994 289° West 404 465 34,000  Level FlightAware ADS-B (EGXW / WTN)
04:56AM 53.4179 0.7112 289° West 405 466 34,000  Level FlightAware ADS-B (EGXW / WTN)
04:56AM 53.4394 0.6034 289° West 405 466 34,000  Level FlightAware ADS-B
04:56AM 53.4428 0.5855 288° West 404 465 34,000  Level FlightAware ADS-B (EGXW / WTN)
04:57AM 53.4574 0.5127 289° West 404 465 34,000  Level FlightAware ADS-B
04:57AM 53.4662 0.4683 288° West 403 464 34,000  Level FlightAware ADS-B (EGXW / WTN)
04:57AM 53.4727 0.4363 289° West 405 466 34,000  Level FlightAware ADS-B
04:57AM 53.4792 0.4116 294° West 408 470 34,000  Level FlightAware ADS-B (EGXW / WTN)
04:57AM 53.4806 0.4065 295° West 407 468 34,000  Level FlightAware ADS-B
04:58AM 53.5022 0.3445 300° West 412 474 34,000  Level FlightAware ADS-B
04:58AM 53.5082 0.3297 304° West 413 475 34,000  Level FlightAware ADS-B (EGXW / WTN)
04:58AM 53.5360 0.2640 305° West 413 475 34,000  Level FlightAware ADS-B
04:59AM 53.5535 0.2236 306° West 413 475 34,000  Level FlightAware ADS-B (EGXW / WTN)
04:59AM 53.5705 0.1843 306° West 412 474 34,000  Level FlightAware ADS-B
04:59AM 53.5881 0.1440 306° West 412 474 34,000  Level FlightAware ADS-B (EGXW / WTN)
04:59AM 53.6100 0.0927 306° West 411 473 34,000  Level FlightAware ADS-B
05:00AM 53.6224 0.0637 306° West 411 473 34,000  Level FlightAware ADS-B (EGXW / WTN)
05:00AM 53.6451 0.0103 306° West 410 472 34,000  Level FlightAware ADS-B
05:00AM 53.6542 -0.0110 306° West 409 471 34,000  Level FlightAware ADS-B (EGXW / WTN)
05:00AM 53.6751 -0.0604 306° West 409 471 34,000  Level FlightAware ADS-B
05:00AM 53.6763 -0.0630 307° West 409 471 34,000  Level FlightAware ADS-B (EGGP / LPL)
05:01AM 53.7041 -0.1135 313° West 418 481 34,000  Level FlightAware ADS-B
05:01AM 53.7074 -0.1181 320° Northwest 421 484 34,000  Level FlightAware ADS-B (EGXW / WTN)
05:01AM 53.7249 -0.1413 322° Northwest 426 490 34,000  Level FlightAware ADS-B
05:01AM 53.7296 -0.1470 325° Northwest 426 490 34,000  Level FlightAware ADS-B
05:02AM 53.7882 -0.2146 326° Northwest 427 491 34,000  Level FlightAware ADS-B (EGXW / WTN)
05:02AM 53.8382 -0.2714 326° Northwest 426 490 34,000  Level FlightAware ADS-B (EGXW / WTN)
05:03AM 53.8840 -0.3239 326° Northwest 424 488 34,000  Level FlightAware ADS-B
05:03AM 53.9343 -0.3818 326° Northwest 422 486 34,000  Level FlightAware ADS-B (EGXW / WTN)
05:04AM 53.9861 -0.4419 326° Northwest 421 484 34,000  Level FlightAware ADS-B (EGXW / WTN)
05:04AM 54.0265 -0.4887 326° Northwest 413 475 34,000  Level FlightAware ADS-B
05:05AM 54.0812 -0.5526 326° Northwest 419 482 34,000  Level FlightAware ADS-B
05:05AM 54.1365 -0.6171 326° Northwest 417 480 34,000  Level FlightAware ADS-B (EGXW / WTN)
05:05AM 54.1457 -0.6288 323° Northwest 409 471 34,000  Level FlightAware ADS-B (EGNY)
05:06AM 54.1914 -0.6939 320° Northwest 413 475 34,000  Level FlightAware ADS-B
05:06AM 54.2426 -0.7699 319° Northwest 414 476 34,000  Level FlightAware ADS-B (EGXW / WTN)
05:07AM 54.2693 -0.8091 320° Northwest 415 478 34,000  Level FlightAware ADS-B (EGXW / WTN)
05:07AM 54.3188 -0.8810 320° Northwest 416 479 34,000  Level FlightAware ADS-B (EGGP / LPL)
05:08AM 54.3758 -0.9651 319° Northwest 416 479 34,000  Level FlightAware ADS-B
05:09AM 54.4280 -1.0420 319° Northwest 421 484 34,000  Level FlightAware
05:09AM 54.4488 -1.0721 320° Northwest 423 487 34,000  Level FlightAware ADS-B
05:09AM 54.4937 -1.1387 319° Northwest 424 488 34,000  Level FlightAware ADS-B
05:10AM 54.5408 -1.2091 319° Northwest 427 491 34,000  Level FlightAware ADS-B (EGNY)
05:10AM 54.5919 -1.2789 319° Northwest 452 520 34,000  Level FlightAware UK
05:10AM 54.5902 -1.2831 319° Northwest 428 493 34,000  Level FlightAware ADS-B
05:11AM 54.6529 -1.3771 319° Northwest 429 494 34,000  Level FlightAware ADS-B
05:12AM 54.6927 -1.4372 319° Northwest 428 493 34,000  Level FlightAware ADS-B
05:12AM 54.7416 -1.5114 319° Northwest 427 491 34,000  Level FlightAware ADS-B
05:13AM 54.8026 -1.6043 319° Northwest 427 491 34,000  Level FlightAware ADS-B
05:13AM 54.8494 -1.6752 319° Northwest 427 491 34,000  Level FlightAware ADS-B
05:13AM 54.8565 -1.6861 318° Northwest 427 491 34,000  Level FlightAware ADS-B (EGXW / WTN)
05:14AM 54.9059 -1.7621 319° Northwest 427 491 34,000  Level FlightAware ADS-B
05:14AM 54.9390 -1.8164 317° Northwest 425 489 34,000  Level FlightAware ADS-B
05:15AM 54.9663 -1.8708 311° West 418 481 34,000  Level FlightAware ADS-B (EGGP / LPL)
05:15AM 55.0042 -1.9661 305° West 414 476 34,000  Level FlightAware ADS-B
05:16AM 55.0350 -2.0500 303° West 415 478 34,000  Level FlightAware ADS-B
05:16AM 55.0660 -2.1355 302° West 413 475 34,000  Level FlightAware ADS-B
05:17AM 55.0853 -2.1889 302° West 412 474 34,000  Level FlightAware ADS-B
05:17AM 55.1155 -2.2735 302° West 409 471 34,000  Level FlightAware ADS-B (EGNY)
05:17AM 55.1251 -2.3007 302° West 409 471 34,000  Level FlightAware ADS-B (EGNY)
05:18AM 55.1565 -2.3908 301° West 409 471 34,000  Level FlightAware ADS-B
05:18AM 55.1672 -2.4277 297° West 402 463 34,000  Level FlightAware ADS-B (EGNY)
05:19AM 55.1956 -2.5333 295° West 404 465 34,000  Level FlightAware ADS-B
05:19AM 55.2214 -2.6263 296° West 406 467 34,000  Level FlightAware ADS-B
05:19AM 55.2293 -2.6544 296° West 406 467 34,000  Level FlightAware ADS-B (EGNY)
05:20AM 55.2640 -2.7763 297° West 405 466 34,000  Level FlightAware ADS-B
05:21AM 55.2956 -2.8867 297° West 403 464 34,000  Level FlightAware ADS-B
05:21AM 55.3321 -3.0166 296° West 403 464 34,000  Level FlightAware ADS-B (EGGP / LPL)
05:22AM 55.3761 -3.1451 296° West 454 522 34,000  Level FlightAware UK
05:22AM 55.3740 -3.1680 296° West 402 463 34,000  Level FlightAware
05:22AM 55.3800 -3.1881 298° West 402 463 34,000  Level FlightAware ADS-B
05:23AM 55.4258 -3.3537 296° West 402 463 34,000  Level FlightAware ADS-B
05:24AM 55.4687 -3.4792 296° West 454 522 34,000  Level FlightAware UK
05:24AM 55.4463 -3.4276 296° West 400 460 34,000  Level FlightAware ADS-B (EGGP / LPL)
05:25AM 55.5065 -3.6195 296° West 454 522 34,000  Level FlightAware UK
05:25AM 55.4960 -3.6130 296° West 395 455 34,000  Level FlightAware
05:25AM 55.5240 -3.7170 295° West 394 453 34,000  Level FlightAware
05:26AM 55.5416 -3.7831 295° West 392 451 34,000  Level FlightAware ADS-B
05:26AM 55.5690 -3.8868 295° West 396 456 34,000 60 Level FlightAware ADS-B (EGGP / LPL)
05:27AM 55.5936 -3.9793 295° West 398 458 34,100 480 Climbing FlightAware ADS-B (EGGP / LPL)
05:27AM 55.5982 -3.9970 295° West 402 463 34,600 780 Climbing FlightAware ADS-B (EGGP / LPL)
05:28AM 55.6470 -4.1456 295° West 450 518 34,800 540 Climbing FlightAware UK
05:28AM 55.6708 -4.2364 295° West 456 525 35,000 600 Climbing FlightAware UK
05:29AM 55.7001 -4.3469 295° West 462 532 35,500 840 Climbing FlightAware UK
05:29AM 55.7015 -4.3916 295° West 412 474 35,800 480 Climbing FlightAware ADS-B
05:30AM 55.7330 -4.5130 295° West 413 475 36,000 120 Climbing FlightAware
05:30AM 55.7580 -4.6110 295° West 415 478 36,000  Level FlightAware
05:30AM 55.7763 -4.6415 295° West 464 534 36,000  Level FlightAware UK
05:31AM 55.8050 -4.7520 295° West 456 525 36,000  Level FlightAware UK
05:31AM 55.7930 -4.7460 295° West 411 473 36,000  Level FlightAware
05:32AM 55.8210 -4.8560 294° West 411 473 36,000  Level FlightAware
05:32AM 55.8540 -4.9861 294° West 408 470 36,000  Level FlightAware ADS-B
05:33AM 55.8982 -5.1192 294° West 460 529 36,000  Level FlightAware UK
05:33AM 55.8930 -5.1400 294° West 404 465 36,000  Level FlightAware
05:34AM 55.9171 -5.2376 294° West 403 464 36,000  Level FlightAware ADS-B
05:34AM 55.9480 -5.3630 294° West 401 461 36,000  Level FlightAware
05:34AM 55.9510 -5.3728 298° West 401 461 36,000  Level FlightAware ADS-B
05:34AM 55.9662 -5.3901 294° West 452 520 36,000  Level FlightAware UK
05:35AM 55.9830 -5.5010 298° West 403 464 36,000  Level FlightAware
05:35AM 55.9975 -5.5160 298° West 448 516 36,000  Level FlightAware UK
05:36AM 56.0200 -5.6070 298° West 454 522 36,000  Level FlightAware UK
05:36AM 56.0100 -5.6130 298° West 406 467 36,000  Level FlightAware
05:36AM 56.0440 -5.7500 294° West 407 468 36,000  Level FlightAware
05:37AM 56.0878 -5.8831 294° West 462 532 36,000  Level FlightAware UK
05:37AM 56.0760 -5.8820 294° West 407 468 36,000  Level FlightAware
05:38AM 56.1140 -6.0370 294° West 407 468 36,000  Level FlightAware
05:39AM 56.1548 -6.1597 294° West 458 527 36,000  Level FlightAware UK
05:39AM 56.1460 -6.1720 294° West 407 468 36,000  Level FlightAware
05:39AM 56.1812 -6.2699 294° West 454 522 36,000  Level FlightAware UK
05:39AM 56.1760 -6.2980 294° West 406 467 36,000  Level FlightAware
05:40AM 56.2020 -6.4060 293° West 408 470 36,000  Level FlightAware
05:41AM 56.2270 -6.5130 293° West 409 471 36,000  Level FlightAware
05:41AM 56.2696 -6.6417 293° West 458 527 36,000  Level FlightAware UK
05:41AM 56.2570 -6.6400 293° West 410 472 36,000  Level FlightAware
05:42AM 56.2917 -6.7355 293° West 458 527 36,000  Level FlightAware UK
05:42AM 56.2860 -6.7640 293° West 411 473 36,000  Level FlightAware
05:43AM 56.3160 -6.8910 293° West 411 473 36,000  Level FlightAware
05:43AM 56.3571 -7.0173 293° West 456 525 36,000  Level FlightAware UK
05:43AM 56.3450 -7.0160 293° West 412 474 36,000  Level FlightAware
05:44AM 56.3788 -7.1119 293° West 458 527 36,000  Level FlightAware UK
05:44AM 56.4011 -7.2074 293° West 448 516 36,000  Level FlightAware UK
05:45AM 56.4110 -7.3010 293° West 420 483 36,000  Level FlightAware
05:45AM 56.4230 -7.3033 293° West 448 516 36,000  Level FlightAware UK
05:45AM 56.4450 -7.4005 293° West 462 532 36,000  Level FlightAware UK
05:46AM 56.4675 -7.4997 292° West 468 539 36,000  Level FlightAware UK
05:46AM 56.4580 -7.5120 292° West 430 495 36,000  Level FlightAware
05:46AM 56.4943 -7.6178 292° West 474 545 36,000  Level FlightAware UK
05:46AM 56.4870 -7.6360 292° West 430 495 36,000  Level FlightAware
05:47AM 56.5120 -7.7480 292° West 429 494 36,000  Level FlightAware
05:48AM 56.5340 -7.8490 292° West 427 491 36,000  Level FlightAware
05:48AM 56.5630 -7.9770 292° West 421 484 36,000  Level FlightAware
05:49AM 56.5880 -8.0930 292° West 419 482 36,000  Level FlightAware
05:49AM 56.6039 -8.1116 292° West 474 545 36,000  Level FlightAware UK
05:49AM 56.6253 -8.2091 292° West 472 543 36,000  Level FlightAware UK
05:50AM 56.6240 -8.2540 292° West 415 478 36,000  Level FlightAware
05:50AM 56.6540 -8.3940 292° West 414 476 36,000  Level FlightAware
05:50AM 56.6677 -8.4034 292° West 466 536 36,000  Level FlightAware UK
05:51AM 56.6885 -8.5003 292° West 466 536 36,000  Level FlightAware UK
05:51AM 56.6840 -8.5310 292° West 412 474 36,000  Level FlightAware
05:52AM 56.7190 -8.6930 292° West 413 475 36,000  Level FlightAware
05:52AM 56.7300 -8.6937 292° West 458 527 36,000  Level FlightAware UK
05:52AM 56.7505 -8.7901 292° West 460 529 36,000  Level FlightAware UK
05:52AM 56.7400 -8.7910 292° West 412 474 36,000  Level FlightAware
05:53AM 56.7751 -8.9052 292° West 460 529 36,000  Level FlightAware UK
05:53AM 56.7670 -8.9180 292° West 412 474 36,000  Level FlightAware
05:54AM 56.8080 -9.1120 291° West 413 475 36,000  Level FlightAware
05:55AM 56.8320 -9.2270 291° West 414 476 36,000  Level FlightAware
05:55AM 56.8560 -9.3430 291° West 414 476 36,000  Level FlightAware
05:56AM 56.8780 -9.4510 290° West 413 475 36,000  Level FlightAware
05:56AM 56.9060 -9.5850 291° West 414 476 36,000  Level FlightAware
05:57AM 56.9370 -9.7360 291° West 415 478 36,000  Level FlightAware
05:58AM 56.9630 -9.8670 290° West 416 479 36,000  Level FlightAware
05:59AM 56.9900 -9.9970 291° West 414 476 36,000  Level FlightAware
05:59AM 57.0220 -10.1280 294° West 415 478 36,000  Level FlightAware
06:00AM 57.0620 -10.2880 295° West 418 481 36,000  Level FlightAware
06:01AM 57.1010 -10.4070 301° West 424 488 36,000  Level FlightAware
06:01AM 57.1540 -10.5360 307° West 423 487 36,000  Level FlightAware
06:02AM 57.1960 -10.6810 298° West 420 483 36,000  Level FlightAware
06:03AM 57.2240 -10.7940 295° West 417 480 36,000  Level FlightAware
06:03AM 57.2360 -10.8430 294° West 416 479 36,000  Level FlightAware
06:04AM 57.2810 -11.0270 294° West 417 480 36,000  Level FlightAware
06:04AM 57.3070 -11.1380 293° West 417 480 36,000  Level FlightAware
06:05AM 57.3360 -11.2550 295° West 416 479 36,000  Level FlightAware
06:05AM 57.3510 -11.3190 294° West 416 479 36,000  Level FlightAware
06:06AM 57.3960 -11.5070 294° West 416 479 36,000  Level FlightAware
06:07AM 57.4120 -11.5790 292° West 417 480 36,000  Level FlightAware
06:07AM 57.4460 -11.7240 294° West 416 479 36,000  Level FlightAware
06:08AM 57.4660 -11.8070 294° West 417 480 36,000  Level FlightAware
06:09AM 57.5050 -11.9740 294° West 421 484 36,000  Level FlightAware
06:09AM 57.5300 -12.0850 293° West 422 486 36,000  Level FlightAware
06:10AM 57.5640 -12.2320 293° West 422 486 36,000  Level FlightAware
06:10AM 57.5810 -12.3070 293° West 422 486 36,000  Level FlightAware
06:11AM 57.6040 -12.4060 293° West 422 486 36,000  Level FlightAware
06:12AM 57.6400 -12.5660 293° West 422 486 36,000  Level FlightAware
06:13AM 57.6630 -12.6690 293° West 422 486 36,000  Level FlightAware
06:13AM 57.6950 -12.8090 293° West 422 486 36,000  Level FlightAware
06:14AM 57.7260 -12.9460 293° West 422 486 36,000  Level FlightAware
06:15AM 57.7660 -13.1210 293° West 422 486 36,000  Level FlightAware
06:16AM 57.7970 -13.2610 293° West 422 486 36,000  Level FlightAware
06:17AM 57.8210 -13.3640 294° West 422 486 36,000  Level FlightAware
06:17AM 57.8520 -13.5020 293° West 422 486 36,000  Level FlightAware
06:18AM 57.8750 -13.6060 293° West 422 486 36,000  Level FlightAware
06:19AM 57.9150 -13.7810 293° West 422 486 36,000  Level FlightAware
06:20AM 57.9380 -13.8850 293° West 422 486 36,000  Level FlightAware
06:20AM 57.9460 -13.9220 292° West 422 486 36,000  Level FlightAware
06:23AM 57.9567 -14.4674 272° West  Level Estimated
06:24AM 57.9602 -14.6759 272° West  Level Estimated
06:25AM 57.9634 -14.8844 272° West  Level Estimated
06:26AM 57.9662 -15.0930 272° West  Level Estimated
06:27AM 57.9687 -15.3016 271° West  Level Estimated
06:28AM 57.9709 -15.5178 271° West  Level Estimated
06:29AM 57.9727 -15.7339 271° West  Level Estimated
06:30AM 57.9742 -15.9501 271° West  Level Estimated
06:31AM 57.9753 -16.1663 271° West  Level Estimated
06:32AM 57.9760 -16.3825 270° West  Level Estimated
06:33AM 57.9763 -16.5988 270° West  Level Estimated
06:34AM 57.9763 -16.8150 270° West  Level Estimated
06:35AM 57.9760 -17.0312 270° West  Level Estimated
06:36AM 57.9752 -17.2474 270° West  Level Estimated
06:37AM 57.9741 -17.4636 270° West  Level Estimated
06:38AM 57.9727 -17.6798 269° West  Level Estimated
06:39AM 57.9708 -17.8960 269° West  Level Estimated
06:40AM 57.9686 -18.1121 269° West  Level Estimated
06:41AM 57.9660 -18.3282 269° West  Level Estimated
06:42AM 57.9631 -18.5443 269° West  Level Estimated
06:43AM 57.9598 -18.7604 268° West  Level Estimated
06:44AM 57.9561 -18.9764 268° West  Level Estimated
06:45AM 57.9521 -19.1923 268° West  Level Estimated
06:46AM 57.9477 -19.4082 268° West  Level Estimated
06:47AM 57.9429 -19.6241 268° West  Level Estimated
06:47AM 59.0000 -20.0000 285° West 422 486 36,000  Level ETMS Enhanced Traffic Management System
06:48AM 57.9378 -19.8399 268° West  Level Estimated
06:49AM 57.9323 -20.0556 267° West  Level Estimated
06:50AM 57.9264 -20.2713 267° West  Level Estimated
06:51AM 57.9202 -20.4869 267° West  Level Estimated
06:52AM 57.9136 -20.7024 267° West  Level Estimated
06:53AM 57.9066 -20.9178 267° West  Level Estimated
06:54AM 59.2095 -21.5483 284° West 422 486 36,000  Level FlightAware Transoceanic
06:55AM 59.2380 -21.7710 284° West 422 486 36,000  Level FlightAware Transoceanic
06:56AM 59.2660 -21.9941 284° West 422 486 36,000  Level FlightAware Transoceanic
06:57AM 59.2937 -22.2175 284° West 422 486 36,000  Level FlightAware Transoceanic
06:58AM 59.3209 -22.4413 283° West 422 486 36,000  Level FlightAware Transoceanic
06:59AM 59.3478 -22.6655 283° West 422 486 36,000  Level FlightAware Transoceanic
07:00AM 59.3744 -22.8900 283° West 422 486 36,000  Level FlightAware Transoceanic
07:01AM 59.4005 -23.1148 283° West 422 486 36,000  Level FlightAware Transoceanic
07:02AM 59.4262 -23.3400 283° West 422 486 36,000  Level FlightAware Transoceanic
07:03AM 59.4515 -23.5656 282° West 422 486 36,000  Level FlightAware Transoceanic
07:04AM 59.4765 -23.7915 282° West 422 486 36,000  Level FlightAware Transoceanic
07:05AM 59.5011 -24.0177 282° West 422 486 36,000  Level FlightAware Transoceanic
07:06AM 59.5252 -24.2442 282° West 422 486 36,000  Level FlightAware Transoceanic
07:07AM 59.5490 -24.4711 282° West 422 486 36,000  Level FlightAware Transoceanic
07:08AM 59.5724 -24.6982 281° West 422 486 36,000  Level FlightAware Transoceanic
07:09AM 59.5954 -24.9257 281° West 422 486 36,000  Level FlightAware Transoceanic
07:10AM 59.6180 -25.1535 281° West 422 486 36,000  Level FlightAware Transoceanic
07:11AM 59.6402 -25.3816 281° West 422 486 36,000  Level FlightAware Transoceanic
07:12AM 59.6620 -25.6100 281° West 422 486 36,000  Level FlightAware Transoceanic
07:13AM 59.6834 -25.8387 280° West 422 486 36,000  Level FlightAware Transoceanic
07:14AM 59.7045 -26.0677 280° West 422 486 36,000  Level FlightAware Transoceanic
07:15AM 59.7251 -26.2970 280° West 422 486 36,000  Level FlightAware Transoceanic
07:16AM 59.7453 -26.5266 280° West 422 486 36,000  Level FlightAware Transoceanic
07:17AM 59.7651 -26.7564 280° West 422 486 36,000  Level FlightAware Transoceanic
07:18AM 59.7845 -26.9865 279° West 422 486 36,000  Level FlightAware Transoceanic
07:19AM 59.8035 -27.2168 279° West 422 486 36,000  Level FlightAware Transoceanic
07:20AM 59.8221 -27.4475 279° West 422 486 36,000  Level FlightAware Transoceanic
07:21AM 59.8403 -27.6784 279° West 422 486 36,000  Level FlightAware Transoceanic
07:22AM 59.8581 -27.9095 279° West 422 486 36,000  Level FlightAware Transoceanic
07:23AM 59.8755 -28.1409 278° West 422 486 36,000  Level FlightAware Transoceanic
07:24AM 59.8925 -28.3725 278° West 422 486 36,000  Level FlightAware Transoceanic
07:25AM 59.9091 -28.6043 278° West 422 486 36,000  Level FlightAware Transoceanic
07:26AM 59.9253 -28.8364 278° West 422 486 36,000  Level FlightAware Transoceanic
07:27AM 59.9410 -29.0687 278° West 422 486 36,000  Level FlightAware Transoceanic
07:28AM 59.9564 -29.3012 277° West 422 486 36,000  Level FlightAware Transoceanic
07:29AM 59.9713 -29.5339 277° West 422 486 36,000  Level FlightAware Transoceanic
07:30AM 59.9859 -29.7669 277° West 422 486 36,000  Level FlightAware Transoceanic
07:31AM 59.9997 -29.9945 277° West  Level FlightAware Approximate
07:32AM 60.0130 -30.2222 277° West  Level FlightAware Approximate
07:33AM 59.9867 -30.2165 263° West  Level FlightAware Approximate
07:34AM 59.9723 -30.4438 263° West  Level FlightAware Approximate
07:35AM 59.9576 -30.6710 263° West  Level FlightAware Approximate
07:36AM 59.9424 -30.8980 263° West  Level FlightAware Approximate
07:37AM 59.9269 -31.1247 262° West  Level FlightAware Approximate
07:38AM 59.9109 -31.3512 262° West  Level FlightAware Approximate
07:39AM 59.8946 -31.5776 262° West  Level FlightAware Approximate
07:40AM 59.8779 -31.8036 262° West  Level FlightAware Approximate
07:41AM 59.8608 -32.0295 262° West  Level FlightAware Approximate
07:42AM 59.8433 -32.2551 261° West  Level FlightAware Approximate
07:43AM 59.8255 -32.4805 261° West  Level FlightAware Approximate
07:44AM 59.8072 -32.7057 261° West  Level FlightAware Approximate
07:45AM 59.7886 -32.9305 261° West  Level FlightAware Approximate
07:46AM 59.7696 -33.1552 261° West  Level FlightAware Approximate
07:47AM 59.7502 -33.3796 260° West  Level FlightAware Approximate
07:48AM 59.7304 -33.6037 260° West  Level FlightAware Approximate
07:49AM 59.7102 -33.8275 260° West  Level FlightAware Approximate
07:50AM 59.6897 -34.0511 260° West  Level FlightAware Approximate
07:51AM 59.6688 -34.2744 260° West  Level FlightAware Approximate
07:52AM 59.6475 -34.4974 259° West  Level FlightAware Approximate
07:53AM 59.6258 -34.7202 259° West  Level FlightAware Approximate
07:54AM 59.6037 -34.9426 259° West  Level FlightAware Approximate
07:55AM 59.5813 -35.1648 259° West  Level FlightAware Approximate
07:56AM 59.5585 -35.3866 259° West  Level FlightAware Approximate
07:57AM 59.5353 -35.6082 258° West  Level FlightAware Approximate
07:58AM 59.5118 -35.8295 258° West  Level FlightAware Approximate
07:59AM 59.4884 -36.0506 258° West  Level FlightAware Approximate
08:00AM 59.4646 -36.2714 258° West  Level FlightAware Approximate
08:01AM 59.4404 -36.4920 258° West  Level FlightAware Approximate
08:02AM 59.4158 -36.7122 258° West  Level FlightAware Approximate
08:03AM 59.3909 -36.9320 258° West  Level FlightAware Approximate
08:04AM 59.3656 -37.1516 257° West  Level FlightAware Approximate
08:05AM 59.3400 -37.3708 257° West  Level FlightAware Approximate
08:06AM 59.3139 -37.5897 257° West  Level FlightAware Approximate
08:07AM 59.2875 -37.8082 257° West  Level FlightAware Approximate
08:08AM 59.2608 -38.0265 257° West  Level FlightAware Approximate
08:09AM 59.2336 -38.2443 256° West  Level FlightAware Approximate
08:10AM 59.2061 -38.4618 256° West  Level FlightAware Approximate
08:11AM 59.1783 -38.6790 256° West  Level FlightAware Approximate
08:12AM 59.1501 -38.8958 256° West  Level FlightAware Approximate
08:13AM 59.1215 -39.1123 256° West  Level FlightAware Approximate
08:14AM 59.0926 -39.3283 255° West  Level FlightAware Approximate
08:15AM 59.0633 -39.5441 255° West  Level FlightAware Approximate
08:16AM 59.0336 -39.7594 255° West  Level FlightAware Approximate
08:17AM 59.0036 -39.9744 255° West  Level FlightAware Approximate
08:18AM 58.9708 -40.1876 253° West  Level FlightAware Approximate
08:19AM 58.9373 -40.4002 253° West  Level FlightAware Approximate
08:20AM 58.9035 -40.6124 253° West  Level FlightAware Approximate
08:21AM 58.8693 -40.8242 253° West  Level FlightAware Approximate
08:22AM 58.8348 -41.0356 253° West  Level FlightAware Approximate
08:23AM 58.7999 -41.2466 252° West  Level FlightAware Approximate
08:24AM 58.7647 -41.4571 252° West  Level FlightAware Approximate
08:25AM 58.7292 -41.6672 252° West  Level FlightAware Approximate
08:26AM 58.6933 -41.8769 252° West  Level FlightAware Approximate
08:27AM 58.6571 -42.0861 252° West  Level FlightAware Approximate
08:28AM 58.6205 -42.2949 251° West  Level FlightAware Approximate
08:29AM 58.5836 -42.5033 251° West  Level FlightAware Approximate
08:30AM 58.5463 -42.7112 251° West  Level FlightAware Approximate
08:31AM 58.5088 -42.9187 251° West  Level FlightAware Approximate
08:32AM 58.4716 -43.1263 251° West  Level FlightAware Approximate
08:33AM 58.4344 -43.3336 251° West  Level FlightAware Approximate
08:34AM 58.3969 -43.5405 251° West  Level FlightAware Approximate
08:35AM 58.3591 -43.7469 251° West  Level FlightAware Approximate
08:36AM 58.3209 -43.9528 251° West  Level FlightAware Approximate
08:37AM 58.2823 -44.1584 250° West  Level FlightAware Approximate
08:38AM 58.2435 -44.3634 250° West  Level FlightAware Approximate
08:39AM 58.2042 -44.5680 250° West  Level FlightAware Approximate
08:40AM 58.1646 -44.7721 250° West  Level FlightAware Approximate
08:41AM 58.1247 -44.9757 250° West  Level FlightAware Approximate
08:42AM 58.0844 -45.1789 250° West  Level FlightAware Approximate
08:43AM 58.0438 -45.3816 249° West  Level FlightAware Approximate
08:44AM 58.0029 -45.5839 249° West  Level FlightAware Approximate
08:45AM 57.9617 -45.7857 249° West  Level FlightAware Approximate
08:46AM 57.9202 -45.9870 249° West  Level FlightAware Approximate
08:47AM 57.8783 -46.1879 249° West  Level FlightAware Approximate
08:48AM 57.8361 -46.3883 249° West  Level FlightAware Approximate
08:49AM 57.7936 -46.5882 248° West  Level FlightAware Approximate
08:50AM 57.7508 -46.7877 248° West  Level FlightAware Approximate
08:51AM 57.7077 -46.9866 248° West  Level FlightAware Approximate
08:52AM 57.6643 -47.1852 248° West  Level FlightAware Approximate
08:53AM 57.6204 -47.3831 248° West  Level FlightAware Approximate
08:54AM 57.5762 -47.5805 247° West  Level FlightAware Approximate
08:55AM 57.5317 -47.7775 247° West  Level FlightAware Approximate
08:56AM 57.4869 -47.9739 247° West  Level FlightAware Approximate
08:57AM 57.4418 -48.1699 247° West  Level FlightAware Approximate
08:58AM 57.3963 -48.3654 247° West  Level FlightAware Approximate
08:59AM 57.3506 -48.5604 247° West  Level FlightAware Approximate
09:00AM 57.3046 -48.7550 246° West  Level FlightAware Approximate
09:01AM 57.2582 -48.9490 246° West  Level FlightAware Approximate
09:02AM 57.2116 -49.1426 246° West  Level FlightAware Approximate
09:03AM 57.1647 -49.3356 246° West  Level FlightAware Approximate
09:04AM 57.1175 -49.5282 246° West  Level FlightAware Approximate
09:05AM 57.0700 -49.7203 246° West  Level FlightAware Approximate
09:06AM 57.0221 -49.9118 245° Southwest  Level FlightAware Approximate
09:07AM 56.9769 -50.1052 248° West  Level FlightAware Approximate
09:08AM 56.9338 -50.3000 248° West  Level FlightAware Approximate
09:09AM 56.8904 -50.4944 248° West  Level FlightAware Approximate
09:10AM 56.8466 -50.6883 248° West  Level FlightAware Approximate
09:11AM 56.8026 -50.8818 248° West  Level FlightAware Approximate
09:12AM 56.7583 -51.0748 247° West  Level FlightAware Approximate
09:13AM 56.7137 -51.2674 247° West  Level FlightAware Approximate
09:14AM 56.6688 -51.4595 247° West  Level FlightAware Approximate
09:15AM 56.6236 -51.6511 247° West  Level FlightAware Approximate
09:16AM 56.5781 -51.8423 247° West  Level FlightAware Approximate
09:17AM 56.5323 -52.0331 247° West  Level FlightAware Approximate
09:18AM 56.4862 -52.2233 246° West  Level FlightAware Approximate
09:19AM 56.4398 -52.4131 246° West  Level FlightAware Approximate
09:20AM 56.3932 -52.6025 246° West  Level FlightAware Approximate
09:21AM 56.3462 -52.7913 246° West  Level FlightAware Approximate
09:22AM 56.2990 -52.9797 246° West  Level FlightAware Approximate
09:23AM 56.2514 -53.1677 246° West  Level FlightAware Approximate
09:24AM 56.2036 -53.3551 245° Southwest  Level FlightAware Approximate
09:25AM 56.1555 -53.5421 245° Southwest  Level FlightAware Approximate
09:26AM 56.1072 -53.7287 245° Southwest  Level FlightAware Approximate
09:27AM 56.0585 -53.9148 245° Southwest  Level FlightAware Approximate
09:28AM 56.0096 -54.1004 245° Southwest  Level FlightAware Approximate
09:29AM 55.9604 -54.2855 245° Southwest  Level FlightAware Approximate
09:30AM 55.8852 -54.4384 229° Southwest  Level Estimated
09:31AM 55.8098 -54.5907 229° Southwest  Level Estimated
09:32AM 55.7342 -54.7424 229° Southwest  Level Estimated
09:32AM 55.7833 -56.0167 228° Southwest 430 495 38,000  Level Moncton Center
09:33AM 55.6585 -54.8935 228° Southwest  Level Estimated
09:33AM 55.7333 -56.2000 244° Southwest 420 483 38,000  Level Moncton Center
09:34AM 55.5825 -55.0440 228° Southwest  Level Estimated
09:34AM 55.7000 -56.4000 254° West 430 495 38,000  Level Moncton Center
09:35AM 55.5064 -55.1940 228° Southwest  Level Estimated
09:35AM 55.6500 -56.5833 244° Southwest 430 495 38,000  Level Moncton Center
09:36AM 55.4300 -55.3434 228° Southwest  Level Estimated
09:36AM 55.6000 -56.7667 244° Southwest 420 483 38,000  Level Moncton Center
09:37AM 55.3535 -55.4922 228° Southwest  Level Estimated
09:37AM 55.5667 -56.9500 252° West 420 483 38,000  Level Moncton Center
09:38AM 55.2769 -55.6403 228° Southwest  Level Estimated
09:38AM 55.4833 -57.1500 234° Southwest 420 483 38,000  Level Moncton Center
09:39AM 55.4167 -57.3000 232° Southwest 430 495 38,000  Level Moncton Center
09:40AM 55.3333 -57.4667 229° Southwest 430 495 38,000  Level Moncton Center
09:41AM 55.2833 -57.6167 240° Southwest 430 495 38,000  Level Moncton Center
09:42AM 55.1833 -57.7833 224° Southwest 420 483 38,000  Level Moncton Center
09:43AM 55.1333 -57.9500 242° Southwest 420 483 38,000  Level Gander Center
09:44AM 55.0833 -58.0333 224° Southwest 420 483 38,000  Level Gander Center
09:45AM 55.0333 -58.2000 242° Southwest 420 483 38,000  Level Gander Center
09:45AM 54.9833 -58.2833 224° Southwest 420 483 38,000  Level Moncton Center
09:46AM 54.9000 -58.4333 226° Southwest 420 483 38,000  Level Moncton Center
09:47AM 54.8333 -58.6000 235° Southwest 420 483 38,000  Level Moncton Center
09:48AM 54.7667 -58.7500 232° Southwest 420 483 38,000  Level Moncton Center
09:49AM 54.6833 -58.9000 226° Southwest 420 483 38,000  Level Moncton Center
09:50AM 54.6167 -59.0667 235° Southwest 420 483 38,000  Level Moncton Center
09:51AM 54.5333 -59.2167 226° Southwest 420 483 38,000  Level Moncton Center
09:52AM 54.4667 -59.4000 238° Southwest 420 483 38,000  Level Moncton Center
09:53AM 54.4000 -59.5167 226° Southwest 430 495 38,000  Level Moncton Center
09:54AM 54.3000 -59.7000 227° Southwest 420 483 38,000  Level Moncton Center
09:55AM 54.2500 -59.8500 240° Southwest 420 483 38,000  Level Moncton Center
09:56AM 54.1667 -60.0000 227° Southwest 420 483 38,000  Level Moncton Center
09:57AM 54.0833 -60.1167 219° Southwest 410 472 38,000  Level Moncton Center
09:58AM 54.0000 -60.3000 232° Southwest 410 472 38,000  Level Moncton Center
09:59AM 53.9333 -60.4167 226° Southwest 410 472 38,000  Level Moncton Center
10:00AM 53.8667 -60.5667 233° Southwest 410 472 38,000  Level Moncton Center
10:01AM 53.7833 -60.7167 227° Southwest 410 472 38,000  Level Moncton Center
10:02AM 53.7000 -60.8667 227° Southwest 410 472 38,000  Level Moncton Center
10:03AM 53.6333 -61.0167 233° Southwest 420 483 38,000  Level Moncton Center
10:04AM 53.5500 -61.1667 227° Southwest 420 483 38,000  Level Moncton Center
10:05AM 53.4667 -61.3000 224° Southwest 420 483 38,000  Level Moncton Center
10:06AM 53.3833 -61.4333 224° Southwest 420 483 38,000  Level Moncton Center
10:07AM 53.3000 -61.6000 230° Southwest 410 472 38,000  Level Moncton Center
10:08AM 53.2500 -61.7167 234° Southwest 410 472 38,000  Level Moncton Center
10:09AM 53.1667 -61.8667 227° Southwest 410 472 38,000  Level Moncton Center
10:10AM 53.0833 -62.0000 224° Southwest 410 472 38,000  Level Moncton Center
10:11AM 53.0000 -62.1500 227° Southwest 410 472 38,000  Level Moncton Center
10:12AM 52.9167 -62.2833 224° Southwest 410 472 38,000  Level Moncton Center
10:13AM 52.8500 -62.4333 234° Southwest 410 472 38,000  Level Moncton Center
10:14AM 52.7667 -62.5667 224° Southwest 410 472 38,000  Level Moncton Center
10:15AM 52.6833 -62.6833 220° Southwest 410 472 38,000  Level Moncton Center
10:16AM 52.6167 -62.8333 234° Southwest 410 472 38,000  Level Moncton Center
10:17AM 52.5333 -62.9667 224° Southwest 410 472 38,000  Level Moncton Center
10:18AM 52.4667 -63.1000 231° Southwest 410 472 38,000  Level Moncton Center
10:19AM 52.3833 -63.2500 228° Southwest 410 472 38,000  Level Moncton Center
10:20AM 52.3000 -63.3500 216° Southwest 400 460 38,000  Level Moncton Center
10:21AM 52.2167 -63.5000 228° Southwest 400 460 38,000  Level Moncton Center
10:22AM 52.1500 -63.6333 231° Southwest 400 460 38,000  Level Moncton Center
10:23AM 52.0667 -63.7667 225° Southwest 400 460 38,000  Level Moncton Center
10:24AM 51.9833 -63.8833 221° Southwest 400 460 38,000  Level Moncton Center
10:25AM 51.9167 -64.0167 231° Southwest 400 460 38,000  Level Moncton Center
10:26AM 51.8333 -64.1500 225° Southwest 400 460 38,000  Level Moncton Center
10:27AM 51.7500 -64.2833 225° Southwest 400 460 38,000  Level Moncton Center
10:28AM 51.6667 -64.4167 225° Southwest 400 460 38,000  Level Moncton Center
10:29AM 51.6000 -64.5333 227° Southwest 400 460 38,000  Level Moncton Center
10:30AM 51.5167 -64.6667 225° Southwest 400 460 38,000  Level Moncton Center
10:31AM 51.4333 -64.7667 217° Southwest 400 460 38,000  Level Moncton Center
10:32AM 51.3667 -64.9000 231° Southwest 390 449 38,000  Level Moncton Center
10:33AM 51.2833 -65.0333 225° Southwest 390 449 38,000  Level Moncton Center
10:34AM 51.2167 -65.1500 228° Southwest 390 449 38,000  Level Moncton Center
10:35AM 51.1333 -65.2833 225° Southwest 390 449 38,000  Level Moncton Center
10:36AM 51.0833 -65.3000 192° South 390 449 38,000  Level Montreal Center
10:37AM 51.0000 -65.4333 225° Southwest 390 449 38,000  Level Montreal Center
10:38AM 50.9500 -65.5833 242° Southwest 390 449 38,000  Level Gander Center
10:38AM 50.8833 -65.6500 212° Southwest 390 449 38,000  Level Moncton Center
10:39AM 50.8333 -65.6833 203° Southwest 390 449 38,000  Level Montreal Center
10:40AM 50.7667 -65.8000 228° Southwest 390 449 38,000  Level Montreal Center
10:41AM 50.6833 -65.9333 225° Southwest 400 460 38,000  Level Montreal Center
10:42AM 50.6000 -66.0500 222° Southwest 400 460 38,000  Level Montreal Center
10:43AM 50.5333 -66.1500 224° Southwest 400 460 38,000  Level Montreal Center
10:44AM 50.4333 -66.2833 220° Southwest 400 460 38,000  Level Montreal Center
10:45AM 50.3667 -66.4000 228° Southwest 400 460 38,000  Level Montreal Center
10:46AM 50.2667 -66.5167 217° Southwest 410 472 38,000  Level Montreal Center
10:47AM 50.1500 -66.7167 228° Southwest 400 460 38,000  Level Moncton Center
10:48AM 50.0833 -66.8500 232° Southwest 400 460 38,000  Level Moncton Center
10:49AM 50.0000 -66.9833 226° Southwest 410 472 38,000  Level Moncton Center
10:50AM 49.9167 -67.1000 222° Southwest 410 472 38,000  Level Moncton Center
10:51AM 49.8333 -67.2333 226° Southwest 410 472 38,000  Level Moncton Center
10:52AM 49.7333 -67.3500 217° Southwest 410 472 38,000  Level Moncton Center
10:53AM 49.6667 -67.4500 224° Southwest 410 472 38,000  Level Moncton Center
10:54AM 49.5833 -67.5667 222° Southwest 410 472 38,000  Level Moncton Center
10:55AM 49.5000 -67.7000 226° Southwest 410 472 38,000  Level Moncton Center
10:56AM 49.4167 -67.8167 222° Southwest 410 472 38,000  Level Moncton Center
10:57AM 49.3333 -67.9500 226° Southwest 410 472 38,000  Level Moncton Center
10:58AM 49.2500 -68.0333 213° Southwest 410 472 38,000  Level Moncton Center
10:59AM 49.1667 -68.1667 226° Southwest 400 460 38,000  Level Moncton Center
11:00AM 49.0833 -68.2500 213° Southwest 410 472 38,000  Level Moncton Center
11:01AM 48.9667 -68.3833 217° Southwest 410 472 38,000  Level Moncton Center
11:02AM 48.8833 -68.4667 213° Southwest 410 472 38,000  Level Moncton Center
11:03AM 48.8000 -68.5667 218° Southwest 410 472 38,000  Level Moncton Center
11:04AM 48.7000 -68.6667 213° Southwest 400 460 38,000  Level Moncton Center
11:05AM 48.6000 -68.7167 198° South 400 460 38,000  Level Montreal Center
11:06AM 48.5000 -68.8000 209° Southwest 390 449 38,000  Level Montreal Center
11:11AM 48.0220 -69.3330 209° Southwest 38,000  Level FlightAware
11:12AM 47.9550 -69.3990 213° Southwest 395 455 38,000  Level FlightAware
11:13AM 47.9174 -69.4355 213° Southwest 397 457 38,000  Level FlightAware ADS-B (CYSG)
11:13AM 47.8717 -69.4798 213° Southwest 397 457 38,000  Level FlightAware ADS-B (CYSG)
11:14AM 47.8206 -69.5294 213° Southwest 397 457 38,000  Level FlightAware ADS-B (CYSG)
11:14AM 47.7617 -69.5866 213° Southwest 398 458 38,000  Level FlightAware ADS-B (CYSG)
11:15AM 47.6822 -69.6652 214° Southwest 395 455 38,000  Level FlightAware ADS-B (CYSG)
11:16AM 47.6352 -69.7124 214° Southwest 395 455 38,000  Level FlightAware ADS-B (CYSG)
11:17AM 47.5519 -69.7953 214° Southwest 395 455 38,000  Level FlightAware ADS-B (CYSG)
11:17AM 47.4972 -69.8495 214° Southwest 395 455 38,000  Level FlightAware ADS-B (CYSG)
11:18AM 47.4381 -69.9079 214° Southwest 396 456 38,000  Level FlightAware ADS-B (CYSG)
11:18AM 47.3904 -69.9549 214° Southwest 396 456 38,000  Level FlightAware ADS-B (CYSG)
11:19AM 47.3250 -70.0193 214° Southwest 396 456 38,000  Level FlightAware ADS-B (CYSG)
11:20AM 47.2666 -70.0766 214° Southwest 397 457 38,000  Level FlightAware ADS-B (CYSG)
11:20AM 47.2134 -70.1288 214° Southwest 398 458 38,000  Level FlightAware ADS-B (CYSG)
11:21AM 47.1540 -70.1870 214° Southwest 400 460 38,000  Level FlightAware ADS-B (CYSG)
11:22AM 47.0960 -70.2437 214° Southwest 402 463 38,000  Level FlightAware ADS-B (CYSG)
11:22AM 47.0491 -70.2894 214° Southwest 401 461 38,000  Level FlightAware ADS-B (CYSG)
11:23AM 46.9822 -70.3542 213° Southwest 397 457 38,000  Level FlightAware ADS-B (CYSG)
11:23AM 46.9235 -70.4112 214° Southwest 399 459 38,000  Level FlightAware ADS-B (CYSG)
11:24AM 46.8749 -70.4583 213° Southwest 400 460 38,000  Level FlightAware ADS-B (CYSG)
11:25AM 46.8253 -70.5061 213° Southwest 400 460 38,000  Level FlightAware ADS-B (CYSG)
11:25AM 46.7581 -70.5707 213° Southwest 401 461 38,000  Level FlightAware ADS-B (CYSG)
11:26AM 46.6977 -70.6287 213° Southwest 399 459 38,000  Level FlightAware ADS-B (CYSG)
11:27AM 46.6320 -70.6917 213° Southwest 399 459 38,000  Level FlightAware ADS-B (CYSG)
11:27AM 46.5712 -70.7497 213° Southwest 400 460 38,000  Level FlightAware ADS-B (CYSG)
11:28AM 46.5207 -70.7978 213° Southwest 400 460 38,000  Level FlightAware ADS-B (CYSG)
11:28AM 46.4740 -70.8422 213° Southwest 401 461 38,000  Level FlightAware ADS-B (CYSG)
11:29AM 46.4061 -70.9066 213° Southwest 402 463 38,000  Level FlightAware ADS-B (CYSG)
11:30AM 46.3628 -70.9476 213° Southwest 404 465 38,000  Level FlightAware ADS-B (CYSG)
11:30AM 46.2935 -71.0131 213° Southwest 405 466 38,000  Level FlightAware ADS-B (CYSG)
11:31AM 46.2176 -71.0845 213° Southwest 406 467 38,000  Level FlightAware ADS-B (CYSG)
11:32AM 46.1646 -71.1341 213° Southwest 408 470 38,000  Level FlightAware ADS-B (CYSG)
11:33AM 46.0740 -71.2180 213° Southwest 410 472 38,000  Level FlightAware
11:33AM 46.0595 -71.2325 215° Southwest 410 472 38,000  Level FlightAware ADS-B (CYSG)
11:33AM 46.0092 -71.2792 213° Southwest 411 473 38,000  Level FlightAware ADS-B (CYSG)
11:34AM 45.9680 -71.3170 213° Southwest 412 474 38,000  Level FlightAware
11:34AM 45.9439 -71.3396 213° Southwest 412 474 38,000  Level FlightAware ADS-B (CYSG)
11:34AM 45.8906 -71.3892 213° Southwest 413 475 38,000  Level FlightAware ADS-B (CYSG)
11:35AM 45.8320 -71.4431 213° Southwest 414 476 38,000  Level FlightAware ADS-B (CYSG)
11:36AM 45.7770 -71.4937 213° Southwest 415 478 38,000  Level FlightAware ADS-B (CYSG)
11:36AM 45.7172 -71.5488 213° Southwest 418 481 38,000  Level FlightAware ADS-B (CYSG)
11:37AM 45.6649 -71.5965 213° Southwest 418 481 38,000  Level FlightAware ADS-B (CYSG)
11:38AM 45.5820 -71.6720 213° Southwest 419 482 38,000  Level FlightAware
11:38AM 45.5460 -71.7050 213° Southwest 419 482 38,000  Level FlightAware
11:39AM 45.4600 -71.7830 212° Southwest 419 482 38,000  Level FlightAware
11:40AM 45.3900 -71.8460 212° Southwest 419 482 38,000  Level FlightAware
11:40AM 45.3280 -71.9020 212° Southwest 419 482 38,000  Level FlightAware
11:41AM 45.2290 -71.9910 212° Southwest 418 481 38,000  Level FlightAware
11:42AM 45.1710 -72.0420 212° Southwest 420 483 38,000  Level FlightAware
11:43AM 45.0910 -72.1070 210° Southwest 425 489 38,000  Level FlightAware
11:43AM 45.0310 -72.1540 209° Southwest 425 489 38,000  Level FlightAware
11:44AM 46.1730 -71.1260 32° Northeast 408 470 38,000  Level FlightAware ADS-B
11:45AM 44.8870 -72.2630 212° Southwest 423 487 38,000  Level FlightAware
11:45AM 44.8310 -72.3060 209° Southwest 422 486 38,000  Level FlightAware
11:45AM 46.1580 -71.1410 31° Northeast 409 471 38,000  Level FlightAware ADS-B
11:46AM 44.7640 -72.3570 212° Southwest 421 484 38,000  Level FlightAware
11:46AM 46.1500 -71.1480 31° Northeast 409 471 38,000  Level FlightAware ADS-B
11:46AM 44.6948 -72.4095 212° Southwest 420 483 38,000  Level FlightAware ADS-B (KBOS)
11:47AM 44.6370 -72.4530 208° Southwest 419 482 38,000  Level FlightAware
11:47AM 46.1390 -71.1580 31° Northeast 409 471 38,000  Level FlightAware ADS-B
11:48AM 44.5317 -72.5331 212° Southwest 417 480 38,000  Level FlightAware ADS-B (KBOS)
11:49AM 46.1280 -71.1680 31° Northeast 409 471 38,000  Level FlightAware ADS-B
11:49AM 44.4581 -72.5886 211° Southwest 418 481 38,000  Level FlightAware ADS-B (KBOS)
11:49AM 46.1200 -71.1760 30° Northeast 410 472 38,000  Level FlightAware ADS-B
11:49AM 44.4057 -72.6277 211° Southwest 418 481 38,000  Level FlightAware ADS-B (KBOS)
11:50AM 44.3410 -72.6760 208° Southwest 417 480 38,000  Level FlightAware
11:51AM 44.2720 -72.7280 208° Southwest 417 480 38,000  Level FlightAware
11:51AM 44.2120 -72.7720 208° Southwest 418 481 38,000 -120 Level FlightAware
11:52AM 44.1320 -72.8320 208° Southwest 416 479 37,900 -780 Descending FlightAware
11:53AM 44.0470 -72.8940 208° Southwest 415 478 36,800 60 Descending FlightAware
11:54AM 45.0990 -72.1020 28° Northeast 426 490 38,000 840 Climbing FlightAware ADS-B
11:54AM 45.0920 -72.1070 207° Southwest 426 490 38,000  Level FlightAware ADS-B
11:55AM 45.0780 -72.1180 209° Southwest 426 490 38,000 -3,420 Level FlightAware ADS-B
11:55AM 43.7760 -73.0920 208° Southwest 410 472 33,700 -3,780 Descending FlightAware
11:56AM 43.7090 -73.1410 208° Southwest 407 468 33,100 -960 Descending FlightAware
11:57AM 43.6550 -73.1800 208° Southwest 405 466 32,600 -1,020 Descending FlightAware
11:57AM 43.6180 -73.2070 208° Southwest 403 464 32,200 -1,020 Descending FlightAware
11:58AM 43.5470 -73.2580 208° Southwest 400 460 31,500 -900 Descending FlightAware
11:58AM 43.4950 -73.2950 207° Southwest 396 456 31,100 -720 Descending FlightAware
11:59AM 43.4510 -73.3270 208° Southwest 392 451 30,800 -720 Descending FlightAware
11:59AM 43.3840 -73.3750 208° Southwest 386 444 30,300 -600 Descending FlightAware
12:00PM 43.3140 -73.4250 207° Southwest 378 435 30,000 3,720 Descending FlightAware
12:00PM 43.7660 -73.1000 27° Northeast 411 473 33,600 4,980 Climbing FlightAware ADS-B
12:01PM 43.7570 -73.1060 206° Southwest 410 472 33,600 -180 Level FlightAware ADS-B
12:02PM 43.7460 -73.1140 208° Southwest 410 472 33,400 -360 Descending FlightAware ADS-B
12:02PM 43.7100 -73.1400 208° Southwest 408 470 33,100 -4,920 Descending FlightAware ADS-B
12:03PM 43.0000 -73.6470 208° Southwest 397 457 26,000 -840 Descending FlightAware
12:04PM 43.5890 -73.2280 27° Northeast 404 465 31,900 -1,860 Climbing FlightAware ADS-B
12:05PM 42.8740 -73.7350 207° Southwest 374 430 23,600 -120 Descending FlightAware
12:05PM 43.5750 -73.2380 27° Northeast 403 464 31,800 -1,500 Climbing FlightAware ADS-B
12:06PM 42.7560 -73.8160 207° Southwest 389 448 21,700 -8,940 Descending FlightAware
12:06PM 42.7010 -73.8440 201° Southwest 385 443 20,800 -1,680 Descending FlightAware
12:07PM 42.6330 -73.8740 198° South 375 432 19,700 -1,560 Descending FlightAware
12:08PM 42.5830 -73.8960 198° South 368 423 19,000 -1,500 Descending FlightAware
12:08PM 42.5340 -73.9170 198° South 364 419 18,200 -1,680 Descending FlightAware
12:09PM 42.4720 -73.9450 198° South 356 410 17,100 -1,620 Descending FlightAware
12:09PM 42.4120 -73.9710 198° South 347 399 16,100 -1,140 Descending FlightAware
12:10PM 42.3630 -73.9920 198° South 339 390 15,800 -360 Descending FlightAware
12:10PM 42.3300 -74.0070 199° South 318 366 15,800  Level FlightAware
12:12PM 42.1950 -74.0660 198° South 285 328 15,800  Level FlightAware
12:13PM 42.1380 -74.0900 197° South 285 328 15,800 -180 Level FlightAware
12:14PM 42.0810 -74.1150 198° South 289 333 15,600 -660 Descending FlightAware
12:14PM 42.0390 -74.1330 198° South 291 335 15,000 -1,080 Descending FlightAware
12:15PM 41.9840 -74.1570 198° South 289 333 14,300 -1,020 Descending FlightAware
12:16PM 41.9240 -74.1820 197° South 285 328 13,500 -1,020 Descending FlightAware
12:16PM 41.8780 -74.2020 198° South 283 326 12,900 -1,020 Descending FlightAware
12:17PM 41.8260 -74.2240 197° South 278 320 12,200 -1,020 Descending FlightAware
12:18PM 41.7790 -74.2440 198° South 276 318 11,600 -960 Descending FlightAware
12:18PM 41.7400 -74.2610 198° South 272 313 11,100 -1,080 Descending FlightAware
12:19PM 41.6880 -74.2830 198° South 271 312 10,300 -1,080 Descending FlightAware
12:19PM 41.6500 -74.3000 198° South 265 305 9,800 -960 Descending FlightAware
12:20PM 41.6110 -74.3160 197° South 262 302 9,300 -960 Descending FlightAware
12:21PM 41.5630 -74.3360 197° South 260 299 8,600 -1,020 Descending FlightAware
12:21PM 41.5160 -74.3560 198° South 255 293 7,900 -1,080 Descending FlightAware
12:22PM 41.4760 -74.3730 198° South 253 291 7,300 -840 Descending FlightAware
12:23PM 41.4340 -74.3910 198° South 247 284 6,900 -360 Descending FlightAware
12:23PM 41.3890 -74.4100 198° South 250 288 6,900  Level FlightAware
12:24PM 41.3670 -74.4190 197° South 251 289 6,900  Level FlightAware
12:24PM 41.3250 -74.4380 199° South 232 267 6,900 -240 Level FlightAware
12:25PM 41.2820 -74.4560 197° South 201 231 6,600 -720 Descending FlightAware
12:26PM 41.2520 -74.4690 198° South 198 228 6,000 -600 Descending FlightAware
12:26PM 41.2170 -74.4830 197° South 197 227 5,900 -120 Descending FlightAware
12:27PM 41.1810 -74.4990 198° South 198 228 5,900  Level FlightAware
12:28PM 41.1440 -74.5140 197° South 196 226 5,900  Level FlightAware
12:28PM 41.1120 -74.5320 203° Southwest 164 189 5,900  Level FlightAware
12:29PM 41.0880 -74.5440 201° Southwest 167 192 5,900  Level FlightAware
12:29PM 41.0780 -74.5480 197° South 168 193 5,900  Level FlightAware
12:30PM 41.0520 -74.5150 136° Southeast 227 261 5,900 -120 Level FlightAware
12:31PM 41.0700 -74.4670 64° Northeast 235 270 5,800 -540 Descending FlightAware
12:31PM 41.0920 -74.4340 48° Northeast 234 269 5,300 -780 Descending FlightAware
12:32PM 41.1230 -74.3870 49° Northeast 234 269 4,900 -480 Descending FlightAware
12:32PM 41.1260 -74.3700 77° East 223 257 4,900  Level FlightAware
12:33PM 41.1100 -74.3130 110° East 204 235 4,900  Level FlightAware
12:33PM 41.0980 -74.2790 115° Southeast 202 232 4,900  Level FlightAware
12:34PM 41.0780 -74.2370 122° Southeast 188 216 4,900 -120 Level FlightAware
12:34PM 41.0580 -74.2150 140° Southeast 179 206 4,800 -720 Descending FlightAware
12:35PM 41.0310 -74.1920 147° Southeast 176 203 4,100 -780 Descending FlightAware
12:36PM 41.0092 -74.1729 147° Southeast 157 181 3,900 -240 Descending FlightAware ADS-B
12:36PM 40.9973 -74.1624 146° Southeast 153 176 3,900  Level FlightAware ADS-B
12:36PM 40.9879 -74.1538 145° Southeast 154 177 3,900 -360 Level FlightAware ADS-B
12:37PM 40.9751 -74.1421 145° Southeast 154 177 3,700 -660 Descending FlightAware ADS-B
12:37PM 40.9611 -74.1299 147° Southeast 154 177 3,400 -960 Descending FlightAware ADS-B
12:37PM 40.9524 -74.1219 145° Southeast 150 173 3,100 -720 Descending FlightAware ADS-B
12:38PM 40.9362 -74.1072 146° Southeast 153 176 2,900 -300 Descending FlightAware ADS-B
12:38PM 40.9266 -74.0981 144° Southeast 152 175 2,900  Level FlightAware ADS-B
12:38PM 40.9174 -74.0899 146° Southeast 155 178 2,900  Level FlightAware ADS-B
12:39PM 40.9085 -74.0818 145° Southeast 153 176 2,900  Level FlightAware ADS-B
12:39PM 40.9045 -74.0789 151° Southeast 149 171 2,900  Level FlightAware ADS-B
12:39PM 40.9023 -74.0778 159° South 147 169 2,900  Level FlightAware ADS-B
12:39PM 40.9000 -74.0767 160° South 146 168 2,900  Level FlightAware ADS-B
12:39PM 40.8969 -74.0755 164° South 144 166 2,900  Level FlightAware ADS-B
12:39PM 40.8861 -74.0721 167° South 144 166 2,900  Level FlightAware ADS-B
12:39PM 40.8716 -74.0680 168° South 143 165 2,900  Level FlightAware ADS-B
12:40PM 40.8684 -74.0675 173° South 141 162 2,900  Level FlightAware ADS-B
12:40PM 40.8666 -74.0674 178° South 138 159 2,900  Level FlightAware ADS-B
12:40PM 40.8642 -74.0676 184° South 138 159 2,900  Level FlightAware ADS-B
12:40PM 40.8611 -74.0683 190° South 136 157 2,900  Level FlightAware ADS-B
12:40PM 40.8559 -74.0702 195° South 134 154 2,900  Level FlightAware ADS-B
12:40PM 40.8425 -74.0784 205° Southwest 134 154 2,900  Level FlightAware ADS-B
12:41PM 40.8332 -74.0849 208° Southwest 133 153 2,900  Level FlightAware ADS-B
12:41PM 40.8242 -74.0910 207° Southwest 131 151 2,900  Level FlightAware ADS-B
12:41PM 40.8159 -74.0966 207° Southwest 134 154 2,900 -420 Level FlightAware ADS-B
12:41PM 40.8073 -74.1023 207° Southwest 138 159 2,700 -900 Descending FlightAware ADS-B
12:42PM 40.7998 -74.1073 207° Southwest 139 160 2,500 -840 Descending FlightAware ADS-B
12:42PM 40.7821 -74.1190 207° Southwest 140 161 2,100 -720 Descending FlightAware ADS-B
12:42PM 40.7758 -74.1232 207° Southwest 145 167 2,000 -840 Descending FlightAware ADS-B
12:43PM 40.7651 -74.1302 206° Southwest 142 163 1,700 -960 Descending FlightAware ADS-B
12:43PM 40.7562 -74.1361 207° Southwest 142 163 1,500 -840 Descending FlightAware ADS-B
12:43PM 40.7433 -74.1449 207° Southwest 145 167 1,200 -840 Descending FlightAware ADS-B
12:43PM 40.7385 -74.1480 206° Southwest 146 168 1,100 -720 Descending FlightAware ADS-B
12:43PM 40.7332 -74.1514 206° Southwest 146 168 1,000 -720 Descending FlightAware ADS-B
12:44PM 40.7234 -74.1579 207° Southwest 129 148 800 -720 Descending FlightAware ADS-B
12:44PM 40.7150 -74.1636 207° Southwest 125 144 600 -360 Descending FlightAware ADS-B
12:45PM 40.6980 -74.1750 207° Southwest 122 140 500 -180 Descending FlightAware